Terminal Aerodrome Forecast
Issued by NWS

Home | Current Version | Previous Version | Graphics & Text | Print | Product List | Glossary On
Versions: 1 2 3 4 5 6 7 8 9 10 11 12 13 14 15 16 17 18 19
299
FTUS43 KMPX 212320
TAFRWF
TAF
KRWF 212320Z 2200/2224 VRB03KT 1/4SM FG VV003
     FM221400 31006KT 2SM BR OVC004
     FM221700 31008KT 5SM BR OVC008=

USA.gov is the U.S. government's official web portal to all federal, state and local government web resources and services.